Time;durP1;ratioP1;P1;durP2;ratioP2;P2;SDS_P1;SDS_P2;PMS_P1;PMS_P2;Temp;Humidity;BMP_temperature;BMP_pressure;BME280_temperature;BME280_humidity;BME280_pressure;Samples;Min_cycle;Max_cycle;Signal;HPM_P1;HPM_P2
2023/10/29 00:01:47;;;;;;;;;;;;;;;12.55;100.00;99092.09;5113456;28;19916;-94
2023/10/29 00:04:12;;;;;;;;;;;;;;;12.56;100.00;99099.91;5113088;28;19915;-94
2023/10/29 00:06:38;;;;;;;;;;;;;;;12.58;100.00;99090.16;5130285;27;19911;-94
2023/10/29 00:09:06;;;;;;;;;;;;;;;12.56;100.00;99088.56;5131122;27;19916;-95
2023/10/29 00:11:32;;;;;;;;;;;;;;;12.46;100.00;99082.88;5130378;27;19916;-94
2023/10/29 00:14:00;;;;;;;;;;;;;;;12.39;100.00;99081.47;5129972;27;19918;-94
2023/10/29 00:16:28;;;;;;;;;;;;;;;12.38;100.00;99080.59;5129732;28;19964;-94
2023/10/29 00:18:53;;;;;;;;;;;;;;;12.54;100.00;99078.13;5130256;28;19919;-94
2023/10/29 00:24:23;;;;;;;;;;;;;;;12.41;100.00;99059.47;5114399;28;20370;-94
2023/10/29 00:26:58;;;;;;;;;;;;;;;12.67;100.00;99061.75;5130008;28;19918;-94
2023/10/29 00:29:23;;;;;;;;;;;;;;;12.71;100.00;99035.22;5079765;28;19920;-95
2023/10/29 00:31:48;;;;;;;;;;;;;;;12.67;100.00;99031.06;5092664;28;19913;-94
2023/10/29 00:34:30;;;;;;;;;;;;;;;12.62;100.00;99014.66;5092874;28;19912;-95
2023/10/29 00:37:03;;;;;;;;;;;;;;;12.70;100.00;99012.53;5093861;28;19912;-94
2023/10/29 00:39:29;;;;;;;;;;;;;;;12.61;100.00;99013.84;5075935;28;19920;-94
2023/10/29 00:42:02;;;;;;;;;;;;;;;12.65;100.00;98998.75;5092166;28;19960;-94
2023/10/29 00:44:27;;;;;;;;;;;;;;;12.72;100.00;99002.78;5075751;28;19923;-94
2023/10/29 00:46:53;;;;;;;;;;;;;;;12.76;100.00;99003.47;5091979;28;20368;-95
2023/10/29 00:49:24;;;;;;;;;;;;;;;12.71;100.00;99002.84;5076304;28;19951;-94
2023/10/29 00:55:10;;;;;;;;;;;;;;;12.65;100.00;99025.03;5093418;28;19923;-95
2023/10/29 00:57:54;;;;;;;;;;;;;;;12.73;100.00;99017.63;5093219;28;19913;-94
2023/10/29 01:00:21;;;;;;;;;;;;;;;12.68;100.00;99003.84;5075218;28;19962;-94
2023/10/29 01:02:49;;;;;;;;;;;;;;;12.72;100.00;98999.31;5075536;28;19916;-94
2023/10/29 01:05:33;;;;;;;;;;;;;;;12.80;100.00;99007.63;5093574;28;19916;-95
2023/10/29 01:08:01;;;;;;;;;;;;;;;12.75;100.00;98999.97;5075744;28;19912;-95
2023/10/29 01:16:20;;;;;;;;;;;;;;;13.11;100.00;98996.41;5095789;28;20421;-94
2023/10/29 01:18:45;;;;;;;;;;;;;;;12.95;100.00;98987.63;5078600;28;19916;-94
2023/10/29 01:21:13;;;;;;;;;;;;;;;13.02;100.00;98981.13;5096153;28;19912;-94
2023/10/29 01:23:41;;;;;;;;;;;;;;;13.11;100.00;98971.91;5096934;28;19919;-94
2023/10/29 01:26:17;;;;;;;;;;;;;;;13.21;100.00;98967.00;5096087;28;19918;-93
2023/10/29 01:28:43;;;;;;;;;;;;;;;13.20;100.00;98968.78;5080383;28;19959;-94
2023/10/29 01:31:11;;;;;;;;;;;;;;;13.18;100.00;98971.50;5078697;28;19924;-95
2023/10/29 01:33:43;;;;;;;;;;;;;;;13.24;100.00;98974.75;5095567;28;19954;-94
2023/10/29 01:36:08;;;;;;;;;;;;;;;13.38;100.00;98980.16;5079162;28;20364;-94
2023/10/29 01:38:40;;;;;;;;;;;;;;;13.31;100.00;98966.44;5078435;28;19920;-94
2023/10/29 01:41:08;;;;;;;;;;;;;;;13.29;100.00;98972.72;5095591;28;20428;-94
2023/10/29 01:46:42;;;;;;;;;;;;;;;13.31;100.00;98950.66;5096421;28;19970;-94
2023/10/29 01:49:09;;;;;;;;;;;;;;;13.37;100.00;98946.03;5112662;28;19946;-94
2023/10/29 01:51:37;;;;;;;;;;;;;;;13.45;100.00;98938.59;5112631;28;20386;-94
2023/10/29 01:57:05;;;;;;;;;;;;;;;13.31;100.00;98939.28;5096294;28;19938;-95
2023/10/29 01:59:30;;;;;;;;;;;;;;;13.27;100.00;98935.97;5112126;28;19912;-95
2023/10/29 02:02:05;;;;;;;;;;;;;;;13.23;100.00;98939.72;5111997;28;20011;-94
2023/10/29 02:07:34;;;;;;;;;;;;;;;13.19;100.00;98940.78;5096097;28;20377;-94
2023/10/29 02:10:05;;;;;;;;;;;;;;;13.03;100.00;98946.03;5111563;28;19917;-94
2023/10/29 02:12:31;;;;;;;;;;;;;;;13.18;100.00;98946.97;5094771;28;19912;-94
2023/10/29 02:18:05;;;;;;;;;;;;;;;13.02;100.00;98962.72;5095842;28;19919;-95
2023/10/29 02:23:52;;;;;;;;;;;;;;;13.06;100.00;98940.59;5096340;28;19962;-94
2023/10/29 02:26:30;;;;;;;;;;;;;;;13.03;100.00;98932.88;5094318;28;19912;-94
2023/10/29 02:29:13;;;;;;;;;;;;;;;13.07;100.00;98947.53;5094296;28;22521;-95
2023/10/29 02:31:39;;;;;;;;;;;;;;;12.97;100.00;98941.06;5112459;28;19912;-95
2023/10/29 02:34:08;;;;;;;;;;;;;;;12.98;100.00;98945.41;5094789;28;19958;-94
2023/10/29 02:36:42;;;;;;;;;;;;;;;13.06;100.00;98940.59;5111512;28;19994;-94
2023/10/29 02:39:07;;;;;;;;;;;;;;;12.92;100.00;98945.72;5077143;28;19958;-94
2023/10/29 02:44:35;;;;;;;;;;;;;;;12.87;100.00;98939.84;5095185;28;19919;-94
2023/10/29 02:47:00;;;;;;;;;;;;;;;13.03;100.00;98960.91;5110243;28;20337;-93
2023/10/29 02:49:33;;;;;;;;;;;;;;;13.08;100.00;98936.09;5110138;28;19924;-94
2023/10/29 02:55:08;;;;;;;;;;;;;;;13.10;100.00;98949.16;5094272;28;19923;-94
2023/10/29 02:57:33;;;;;;;;;;;;;;;13.17;100.00;98948.78;5093167;28;20364;-94
2023/10/29 02:59:59;;;;;;;;;;;;;;;13.20;100.00;98941.63;5110835;28;19912;-95
2023/10/29 03:02:34;;;;;;;;;;;;;;;13.21;100.00;98938.09;5092999;28;19943;-94
2023/10/29 03:05:06;;;;;;;;;;;;;;;13.28;100.00;98945.56;5109709;28;20241;-94
2023/10/29 03:07:31;;;;;;;;;;;;;;;13.40;98.75;98940.59;5092824;28;20252;-95
2023/10/29 03:10:02;;;;;;;;;;;;;;;13.35;99.46;98930.34;5093247;28;19920;-93
2023/10/29 03:12:27;;;;;;;;;;;;;;;13.36;99.23;98934.69;5110330;28;20355;-93
2023/10/29 03:15:00;;;;;;;;;;;;;;;13.60;96.84;98923.72;5109441;28;19951;-94
2023/10/29 03:17:31;;;;;;;;;;;;;;;13.51;97.02;98931.19;5092480;28;19913;-94
2023/10/29 03:19:57;;;;;;;;;;;;;;;13.56;96.81;98915.19;5094161;28;19935;-94
2023/10/29 03:22:25;;;;;;;;;;;;;;;13.51;97.24;98943.50;5109830;28;19913;-94
2023/10/29 03:25:11;;;;;;;;;;;;;;;13.50;97.18;98937.41;5109576;28;20007;-94
2023/10/29 03:27:37;;;;;;;;;;;;;;;13.49;97.69;98943.59;5092812;28;19927;-94
2023/10/29 03:30:03;;;;;;;;;;;;;;;13.55;97.40;98938.91;5093047;28;20272;-94
2023/10/29 03:32:40;;;;;;;;;;;;;;;13.52;97.46;98935.53;5092506;28;19916;-94
2023/10/29 03:35:06;;;;;;;;;;;;;;;13.58;96.87;98946.66;5092452;28;19956;-94
2023/10/29 03:40:37;;;;;;;;;;;;;;;13.41;99.38;98943.16;5093426;28;19919;-94
2023/10/29 03:43:02;;;;;;;;;;;;;;;13.39;99.30;98947.66;5109284;28;19916;-94
2023/10/29 03:45:30;;;;;;;;;;;;;;;13.34;99.65;98939.13;5109843;28;19919;-95
2023/10/29 03:47:55;;;;;;;;;;;;;;;13.32;99.75;98941.84;4999105;28;2178832;-95
2023/10/29 03:50:23;;;;;;;;;;;;;;;13.43;99.18;98949.19;5110347;28;19927;-94
2023/10/29 03:52:51;;;;;;;;;;;;;;;13.37;99.03;98952.13;5093538;28;19920;-94
2023/10/29 03:55:22;;;;;;;;;;;;;;;13.42;98.85;98942.22;5110208;28;19911;-94
2023/10/29 03:57:53;;;;;;;;;;;;;;;13.35;98.88;98930.34;5075729;28;19959;-94
2023/10/29 04:00:18;;;;;;;;;;;;;;;13.24;99.62;98933.50;5076121;28;19924;-94
2023/10/29 04:02:47;;;;;;;;;;;;;;;13.34;99.04;98933.84;5109259;28;20344;-94
2023/10/29 04:05:13;;;;;;;;;;;;;;;13.34;99.05;98932.09;5092434;28;19912;-94
2023/10/29 04:07:38;;;;;;;;;;;;;;;13.32;98.93;98935.75;5093391;28;19916;-94
2023/10/29 04:10:04;;;;;;;;;;;;;;;13.34;98.61;98940.00;5109598;28;19916;-94
2023/10/29 04:12:29;;;;;;;;;;;;;;;13.27;99.03;98932.50;5075773;28;19916;-94
2023/10/29 04:14:58;;;;;;;;;;;;;;;13.49;97.19;98938.34;5092622;28;19969;-93
2023/10/29 04:17:24;;;;;;;;;;;;;;;13.33;97.86;98934.78;5109966;28;20271;-94
2023/10/29 04:19:52;;;;;;;;;;;;;;;13.29;98.45;98943.78;5109857;28;19919;-94
2023/10/29 04:22:22;;;;;;;;;;;;;;;13.37;97.81;98943.41;5109578;28;19913;-94
2023/10/29 04:24:47;;;;;;;;;;;;;;;13.25;98.23;98958.03;5109960;28;19912;-93
2023/10/29 04:27:22;;;;;;;;;;;;;;;13.41;97.15;98948.41;5109180;28;20334;-95
2023/10/29 04:29:55;;;;;;;;;;;;;;;13.31;97.94;98960.34;5092589;28;19966;-94
2023/10/29 04:32:20;;;;;;;;;;;;;;;13.36;97.15;98955.72;5075125;28;19924;-94
2023/10/29 04:34:45;;;;;;;;;;;;;;;13.28;98.11;98963.97;5109316;28;19912;-94
2023/10/29 04:37:11;;;;;;;;;;;;;;;13.29;98.40;98964.84;5109252;28;19934;-94
2023/10/29 04:39:38;;;;;;;;;;;;;;;13.31;98.31;98968.22;5109676;28;19981;-95
2023/10/29 04:42:05;;;;;;;;;;;;;;;13.21;99.31;98965.22;5092062;28;19942;-95
2023/10/29 04:44:31;;;;;;;;;;;;;;;13.21;99.76;98945.97;5092455;28;19919;-94
2023/10/29 04:47:04;;;;;;;;;;;;;;;13.27;99.53;98958.78;5109359;28;19920;-94
2023/10/29 04:49:29;;;;;;;;;;;;;;;13.31;98.54;98947.19;5092569;28;19920;-94
2023/10/29 04:54:58;;;;;;;;;;;;;;;13.36;97.06;98968.88;5097348;28;20309;-94
2023/10/29 04:57:23;;;;;;;;;;;;;;;13.25;97.44;98965.94;5113197;28;19912;-94
2023/10/29 04:59:56;;;;;;;;;;;;;;;13.27;97.58;98959.63;5095980;28;20038;-94
2023/10/29 05:02:22;;;;;;;;;;;;;;;13.23;97.41;98952.84;5112925;28;19912;-94
2023/10/29 05:04:56;;;;;;;;;;;;;;;13.22;96.75;98945.06;5096616;28;19968;-94
2023/10/29 05:07:24;;;;;;;;;;;;;;;13.36;95.78;98958.34;5095859;28;19916;-94
2023/10/29 05:09:50;;;;;;;;;;;;;;;13.33;96.08;98966.34;5079185;28;19920;-94
2023/10/29 05:12:22;;;;;;;;;;;;;;;13.28;96.63;98966.59;5096941;28;19919;-94
2023/10/29 05:15:09;;;;;;;;;;;;;;;13.15;97.47;98971.66;5078754;28;19965;-94
2023/10/29 05:17:40;;;;;;;;;;;;;;;13.15;98.39;98965.56;5095725;28;19919;-94
2023/10/29 05:20:08;;;;;;;;;;;;;;;13.15;98.11;98976.91;5078913;28;19937;-94
2023/10/29 05:22:37;;;;;;;;;;;;;;;13.13;99.03;98991.06;5095973;28;19912;-94
2023/10/29 05:25:03;;;;;;;;;;;;;;;13.06;99.69;99001.06;5095725;28;19912;-94
2023/10/29 05:27:28;;;;;;;;;;;;;;;12.92;100.00;98995.66;5095380;28;19919;-94
2023/10/29 05:29:59;;;;;;;;;;;;;;;12.82;100.00;99008.41;5096275;28;20245;-93
2023/10/29 05:32:25;;;;;;;;;;;;;;;12.71;100.00;99003.69;5079442;28;19981;-95
2023/10/29 05:34:57;;;;;;;;;;;;;;;12.68;100.00;99003.84;5079427;28;20260;-95
2023/10/29 05:37:38;;;;;;;;;;;;;;;12.59;100.00;99009.56;5112970;28;20371;-95
2023/10/29 05:40:14;;;;;;;;;;;;;;;12.63;100.00;99008.50;5096795;28;19935;-96
2023/10/29 05:42:39;;;;;;;;;;;;;;;12.39;100.00;99011.38;5081060;28;19916;-95
2023/10/29 05:45:07;;;;;;;;;;;;;;;12.02;100.00;99026.25;5113454;28;19912;-94
2023/10/29 05:47:33;;;;;;;;;;;;;;;11.80;100.00;99013.25;5094127;28;19952;-95
2023/10/29 05:50:03;;;;;;;;;;;;;;;11.75;100.00;99018.72;5096794;28;20276;-96
2023/10/29 05:52:37;;;;;;;;;;;;;;;11.64;100.00;99020.13;5112651;28;19916;-95
2023/10/29 05:55:14;;;;;;;;;;;;;;;11.57;100.00;99027.44;5078550;28;20277;-95
2023/10/29 05:57:40;;;;;;;;;;;;;;;11.61;100.00;99035.09;5095637;28;20260;-95
2023/10/29 06:00:15;;;;;;;;;;;;;;;11.52;100.00;99042.50;5095067;28;19923;-95
2023/10/29 06:03:00;;;;;;;;;;;;;;;11.59;100.00;99051.81;5077017;28;19939;-95
2023/10/29 06:05:28;;;;;;;;;;;;;;;11.62;100.00;99051.69;5095375;28;19912;-95
2023/10/29 06:07:54;;;;;;;;;;;;;;;11.53;100.00;99054.72;5112434;28;19912;-96
2023/10/29 06:10:31;;;;;;;;;;;;;;;11.56;100.00;99065.91;5112552;28;19916;-95
2023/10/29 06:13:07;;;;;;;;;;;;;;;11.47;100.00;99070.75;5112054;28;19919;-95
2023/10/29 06:15:32;;;;;;;;;;;;;;;11.50;100.00;99079.31;5095673;28;20268;-95
2023/10/29 06:17:58;;;;;;;;;;;;;;;11.49;100.00;99079.38;5112273;28;19912;-96
2023/10/29 06:20:30;;;;;;;;;;;;;;;11.60;100.00;99098.13;5112160;28;20310;-96
2023/10/29 06:22:55;;;;;;;;;;;;;;;11.72;100.00;99101.97;5095782;28;19912;-95
2023/10/29 06:25:24;;;;;;;;;;;;;;;11.65;100.00;99101.41;5111895;28;19918;-95
2023/10/29 06:27:49;;;;;;;;;;;;;;;11.71;100.00;99116.88;5078056;28;19924;-96
2023/10/29 06:30:16;;;;;;;;;;;;;;;11.74;100.00;99100.16;5114375;28;19916;-95
2023/10/29 06:32:45;;;;;;;;;;;;;;;11.78;100.00;99106.97;5112472;28;19916;-95
2023/10/29 06:35:12;;;;;;;;;;;;;;;11.78;100.00;99115.69;5096966;28;20356;-95
2023/10/29 06:37:37;;;;;;;;;;;;;;;11.68;100.00;99113.53;5096698;28;19916;-95
2023/10/29 06:40:03;;;;;;;;;;;;;;;11.72;100.00;99118.59;5119304;28;19919;-96
2023/10/29 06:42:28;;;;;;;;;;;;;;;11.70;100.00;99115.16;5099922;28;20006;-95
2023/10/29 06:44:54;;;;;;;;;;;;;;;11.66;100.00;99126.72;5100359;28;19919;-96
2023/10/29 06:47:22;;;;;;;;;;;;;;;11.69;100.00;99134.44;5117960;28;20014;-96
2023/10/29 06:49:49;;;;;;;;;;;;;;;11.63;100.00;99139.13;5117952;28;19916;-95
2023/10/29 06:52:15;;;;;;;;;;;;;;;11.60;100.00;99140.09;5105693;28;19920;-95
2023/10/29 06:54:40;;;;;;;;;;;;;;;11.59;100.00;99148.88;5121472;28;19924;-95
2023/10/29 06:57:08;;;;;;;;;;;;;;;11.62;100.00;99143.50;5119673;28;19912;-94
2023/10/29 06:59:43;;;;;;;;;;;;;;;11.56;100.00;99146.41;5099637;28;19912;-96
2023/10/29 07:02:11;;;;;;;;;;;;;;;11.64;100.00;99152.16;5118797;28;19912;-95
2023/10/29 07:04:36;;;;;;;;;;;;;;;11.63;100.00;99152.25;5085089;28;19969;-95
2023/10/29 07:07:02;;;;;;;;;;;;;;;11.70;100.00;99161.56;5114893;28;19916;-94
2023/10/29 07:09:27;;;;;;;;;;;;;;;11.70;100.00;99162.41;5115519;28;19922;-95
2023/10/29 07:11:55;;;;;;;;;;;;;;;11.84;100.00;99166.19;5098412;28;19992;-96
2023/10/29 07:14:20;;;;;;;;;;;;;;;12.01;100.00;99183.84;5115927;28;20000;-95
2023/10/29 07:16:45;;;;;;;;;;;;;;;12.01;100.00;99192.59;5114692;28;19958;-96
2023/10/29 07:19:12;;;;;;;;;;;;;;;11.98;100.00;99192.72;5114643;28;19919;-95
2023/10/29 07:24:43;;;;;;;;;;;;;;;12.19;100.00;99190.91;5115644;28;19966;-95
2023/10/29 07:27:08;;;;;;;;;;;;;;;13.22;96.34;99187.03;5080554;28;19915;-94
2023/10/29 07:29:34;;;;;;;;;;;;;;;13.97;93.27;99172.69;5114184;28;19969;-95
2023/10/29 07:32:00;;;;;;;;;;;;;;;14.10;93.31;99193.97;5096404;28;19923;-95
2023/10/29 07:34:29;;;;;;;;;;;;;;;14.57;91.48;99202.91;5116445;28;19918;-96
2023/10/29 07:39:53;;;;;;;;;;;;;;;15.01;85.70;99225.13;5063255;28;20360;-94
2023/10/29 07:42:19;;;;;;;;;;;;;;;14.83;84.57;99209.41;5113532;28;19911;-95
2023/10/29 07:44:50;;;;;;;;;;;;;;;14.73;85.17;99231.94;5113720;28;19912;-95
2023/10/29 07:47:15;;;;;;;;;;;;;;;14.87;86.78;99224.13;5113208;28;20402;-95
2023/10/29 07:49:44;;;;;;;;;;;;;;;15.45;81.59;99218.28;5113716;28;19917;-95
2023/10/29 07:52:11;;;;;;;;;;;;;;;16.40;77.73;99232.91;5096553;28;19923;-93
2023/10/29 07:54:37;;;;;;;;;;;;;;;17.72;77.01;99230.69;5094298;28;19912;-94
2023/10/29 07:57:05;;;;;;;;;;;;;;;18.33;69.36;99244.22;5093176;28;19982;-94
2023/10/29 07:59:44;;;;;;;;;;;;;;;18.62;68.50;99244.84;5091960;28;20026;-95
2023/10/29 08:02:26;;;;;;;;;;;;;;;19.24;68.75;99251.09;5094379;28;19958;-95
2023/10/29 08:10:47;;;;;;;;;;;;;;;19.64;62.55;99245.47;5052075;28;19939;-95
2023/10/29 08:16:18;;;;;;;;;;;;;;;20.32;61.72;99255.47;5052202;28;19919;-95
2023/10/29 08:21:47;;;;;;;;;;;;;;;21.09;57.58;99263.56;5072925;28;19958;-95
2023/10/29 08:27:17;;;;;;;;;;;;;;;21.71;54.76;99258.56;5075996;28;19962;-95
2023/10/29 08:29:46;;;;;;;;;;;;;;;21.46;53.77;99286.34;5076218;28;19960;-95
2023/10/29 08:32:34;;;;;;;;;;;;;;;21.82;53.63;99280.78;5095613;28;20351;-95
2023/10/29 08:38:31;;;;;;;;;;;;;;;21.88;51.57;99285.59;5120806;28;20443;-95
2023/10/29 08:40:58;;;;;;;;;;;;;;;21.59;54.13;99272.88;5102117;28;19933;-96
2023/10/29 08:43:27;;;;;;;;;;;;;;;22.24;51.78;99288.81;5121475;28;19943;-96
2023/10/29 09:01:53;;;;;;;;;;;;;;;;;;;;;
2023/10/29 09:04:42;;;;;;;;;;;;;;;;;;;;;
2023/10/29 09:10:27;;;;;;;;;;;;;;;16.33;65.82;99337.31;5075736;28;19950;-95
2023/10/29 09:16:21;;;;;;;;;;;;;;;15.92;66.62;99358.16;5119484;28;20386;-94
2023/10/29 09:21:58;;;;;;;;;;;;;;;15.68;67.37;99360.38;5049020;28;19917;-95
2023/10/29 09:27:34;;;;;;;;;;;;;;;15.08;69.69;99363.69;5120297;28;19918;-96
2023/10/29 09:33:18;;;;;;;;;;;;;;;15.35;69.93;99365.75;5118901;28;19922;-95
2023/10/29 09:38:49;;;;;;;;;;;;;;;15.90;68.80;99356.53;5116736;28;20429;-94
2023/10/29 09:44:42;;;;;;;;;;;;;;;16.54;65.05;99357.19;5118060;28;20335;-94
2023/10/29 09:47:17;;;;;;;;;;;;;;;16.15;65.88;99366.53;5119581;28;20042;-95
2023/10/29 09:49:43;;;;;;;;;;;;;;;15.68;68.54;99367.47;5117377;28;19920;-95
2023/10/29 09:52:28;;;;;;;;;;;;;;;15.74;68.37;99372.38;5097539;28;19948;-95
2023/10/29 09:55:04;;;;;;;;;;;;;;;15.74;70.05;99367.09;5096961;28;20297;-94
2023/10/29 09:57:45;;;;;;;;;;;;;;;15.90;69.00;99361.81;5079334;28;19970;-94
2023/10/29 10:00:32;;;;;;;;;;;;;;;15.86;69.20;99360.28;5095365;28;19927;-94
2023/10/29 10:03:03;;;;;;;;;;;;;;;15.63;68.26;99374.78;5096326;28;19998;-94
2023/10/29 10:05:33;;;;;;;;;;;;;;;15.34;69.54;99354.38;5096492;28;20013;-94
2023/10/29 10:08:12;;;;;;;;;;;;;;;15.20;69.30;99341.91;5095879;28;20336;-95
2023/10/29 10:10:48;;;;;;;;;;;;;;;14.95;71.26;99346.81;5098943;28;19920;-94
2023/10/29 10:13:32;;;;;;;;;;;;;;;15.01;71.14;99351.75;5097048;28;20255;-96
2023/10/29 10:16:21;;;;;;;;;;;;;;;14.81;69.97;99342.28;5096027;28;20364;-95
2023/10/29 10:19:21;;;;;;;;;;;;;;;14.59;71.46;99345.16;5095448;28;19958;-95
2023/10/29 10:21:50;;;;;;;;;;;;;;;14.44;72.62;99347.69;5095434;28;19943;-95
2023/10/29 10:27:20;;;;;;;;;;;;;;;14.21;73.46;99333.03;5096634;28;20015;-96
2023/10/29 10:29:51;;;;;;;;;;;;;;;14.17;73.90;99334.13;5077632;28;19927;-95
2023/10/29 10:32:32;;;;;;;;;;;;;;;14.19;73.16;99319.97;5095592;28;19978;-96
2023/10/29 10:44:44;;;;;;;;;;;;;;;14.14;75.99;99345.66;5033379;28;20392;-94
2023/10/29 10:50:13;;;;;;;;;;;;;;;14.32;75.04;99364.09;5106111;28;20253;-94
2023/10/29 10:52:49;;;;;;;;;;;;;;;14.37;75.67;99377.91;5098605;28;20055;-95
2023/10/29 10:55:14;;;;;;;;;;;;;;;14.41;74.77;99368.91;5097545;28;19980;-95
2023/10/29 10:57:54;;;;;;;;;;;;;;;;;;;;;
2023/10/29 11:00:43;;;;;;;;;;;;;;;14.18;76.08;99376.19;5099582;28;19922;-95
2023/10/29 11:03:22;;;;;;;;;;;;;;;14.16;75.29;99375.41;5114696;28;19934;-95
2023/10/29 11:06:03;;;;;;;;;;;;;;;;;;;;;
2023/10/29 11:08:35;;;;;;;;;;;;;;;13.90;76.45;99371.44;5099937;28;19916;-95
2023/10/29 11:11:16;;;;;;;;;;;;;;;13.96;76.75;99378.19;5114507;28;19961;-95
2023/10/29 11:16:55;;;;;;;;;;;;;;;13.66;77.92;99366.44;5115984;28;19918;-94
2023/10/29 11:20:15;;;;;;;;;;;;;;;13.61;78.32;99362.34;5114745;28;19911;-95
2023/10/29 11:41:40;;;;;;;;;;;;;;;13.51;78.84;99312.75;4936174;29;19922;-95
2023/10/29 11:47:32;;;;;;;;;;;;;;;13.56;79.07;99303.78;4938098;29;19922;-95
2023/10/29 11:50:10;;;;;;;;;;;;;;;13.50;79.41;99282.13;4949991;28;19922;-93
2023/10/29 11:52:42;;;;;;;;;;;;;;;13.47;79.88;99271.72;4967848;28;20016;-93
2023/10/29 11:58:10;;;;;;;;;;;;;;;13.82;78.21;99268.28;5012235;28;19921;-92
2023/10/29 12:00:46;;;;;;;;;;;;;;;13.74;79.08;99268.66;4977553;28;20311;-92
2023/10/29 12:03:19;;;;;;;;;;;;;;;13.71;78.77;99273.25;5068038;28;19916;-93
2023/10/29 12:08:55;;;;;;;;;;;;;;;13.75;79.63;99256.34;5093585;28;20015;-92
2023/10/29 12:11:34;;;;;;;;;;;;;;;13.84;79.75;99248.84;5076622;28;19923;-93
2023/10/29 12:14:07;;;;;;;;;;;;;;;13.90;79.58;99260.00;5075129;28;20276;-92
2023/10/29 12:16:33;;;;;;;;;;;;;;;13.90;78.34;99276.66;5075302;28;20006;-93
2023/10/29 12:19:04;;;;;;;;;;;;;;;13.82;78.26;99266.50;5058924;28;20356;-92
2023/10/29 12:24:41;;;;;;;;;;;;;;;13.79;78.29;99287.72;5093376;28;19919;-92
2023/10/29 12:27:14;;;;;;;;;;;;;;;13.75;78.33;99270.38;5092117;28;19912;-92
2023/10/29 12:29:39;;;;;;;;;;;;;;;13.75;78.79;99254.59;5092290;28;19916;-93
2023/10/29 12:32:19;;;;;;;;;;;;;;;13.71;78.70;99246.94;5092271;28;20401;-92
2023/10/29 12:34:56;;;;;;;;;;;;;;;13.75;78.60;99259.84;5074217;28;19911;-93
2023/10/29 12:37:24;;;;;;;;;;;;;;;13.75;78.97;99266.88;5093205;28;20434;-94
2023/10/29 12:39:56;;;;;;;;;;;;;;;13.71;79.28;99284.63;5074813;28;19912;-94
2023/10/29 12:42:40;;;;;;;;;;;;;;;13.73;79.84;99280.13;5075235;28;19918;-93
2023/10/29 12:45:08;;;;;;;;;;;;;;;13.76;79.24;99281.75;5075214;28;19916;-94
2023/10/29 12:47:46;;;;;;;;;;;;;;;13.66;80.30;99283.97;5074978;28;19959;-93
2023/10/29 12:50:12;;;;;;;;;;;;;;;13.88;79.47;99275.00;5083619;28;19923;-93
2023/10/29 12:52:42;;;;;;;;;;;;;;;13.86;78.96;99273.34;5078415;28;20286;-93
2023/10/29 12:55:10;;;;;;;;;;;;;;;14.05;78.56;99272.41;5095374;28;19916;-92
2023/10/29 12:57:38;;;;;;;;;;;;;;;14.63;76.00;99272.94;5078807;28;19923;-93
2023/10/29 13:00:04;;;;;;;;;;;;;;;15.21;72.69;99260.97;5078724;28;19923;-93
2023/10/29 13:02:35;;;;;;;;;;;;;;;15.04;74.40;99299.69;5095068;28;20287;-93
2023/10/29 13:05:02;;;;;;;;;;;;;;;14.89;74.83;99290.81;5079397;28;20014;-93
2023/10/29 13:07:30;;;;;;;;;;;;;;;14.82;75.03;99275.44;5095302;28;20368;-92
2023/10/29 13:09:59;;;;;;;;;;;;;;;14.69;75.18;99288.41;5095422;28;20023;-93
2023/10/29 13:12:26;;;;;;;;;;;;;;;14.49;76.10;99282.38;5099273;28;19960;-93
2023/10/29 13:15:04;;;;;;;;;;;;;;;14.36;75.80;99276.06;5082029;28;20032;-93
2023/10/29 13:17:30;;;;;;;;;;;;;;;14.24;76.67;99266.16;5099336;28;19918;-93
2023/10/29 13:19:59;;;;;;;;;;;;;;;14.13;77.11;99251.75;5098907;28;19912;-92
2023/10/29 13:22:24;;;;;;;;;;;;;;;13.95;77.66;99240.41;5098740;28;19912;-92
2023/10/29 13:24:49;;;;;;;;;;;;;;;13.90;78.44;99231.03;5116237;28;20006;-92
2023/10/29 13:27:14;;;;;;;;;;;;;;;13.93;78.92;99236.16;5115446;28;20043;-93
2023/10/29 13:29:40;;;;;;;;;;;;;;;13.99;79.82;99235.81;5115764;28;20006;-93
2023/10/29 13:32:06;;;;;;;;;;;;;;;13.58;83.07;99241.41;5098372;28;19938;-92
2023/10/29 13:34:31;;;;;;;;;;;;;;;13.30;85.02;99243.59;5098775;28;19924;-92
2023/10/29 13:36:56;;;;;;;;;;;;;;;13.30;86.61;99253.25;5116495;28;19911;-92
2023/10/29 13:39:22;;;;;;;;;;;;;;;13.00;88.15;99252.03;5115924;28;19955;-93
2023/10/29 13:41:48;;;;;;;;;;;;;;;13.04;88.70;99257.97;5098646;28;19950;-93
2023/10/29 13:44:15;;;;;;;;;;;;;;;12.54;90.65;99233.13;5115931;28;19923;-93
2023/10/29 13:46:41;;;;;;;;;;;;;;;12.48;92.12;99230.78;5115603;28;19919;-92
2023/10/29 13:49:10;;;;;;;;;;;;;;;12.33;93.26;99242.00;5098072;28;19920;-91
2023/10/29 13:54:39;;;;;;;;;;;;;;;12.32;95.01;99249.00;5116258;28;19961;-93
2023/10/29 13:57:04;;;;;;;;;;;;;;;12.35;95.92;99243.59;5115159;28;20344;-92
2023/10/29 13:59:30;;;;;;;;;;;;;;;12.12;95.20;99235.00;5097886;28;19918;-93
2023/10/29 14:01:58;;;;;;;;;;;;;;;12.23;96.16;99234.50;5097816;28;19915;-91
2023/10/29 14:10:29;;;;;;;;;;;;;;;12.25;96.83;99216.03;5095633;28;20451;-91
2023/10/29 14:12:54;;;;;;;;;;;;;;;12.21;97.16;99214.47;5088269;28;19951;-90
2023/10/29 14:15:39;;;;;;;;;;;;;;;12.28;98.19;99227.28;5097874;28;20015;-90
2023/10/29 14:18:04;;;;;;;;;;;;;;;12.34;99.71;99225.28;5097939;28;19919;-91
2023/10/29 14:20:30;;;;;;;;;;;;;;;12.35;100.00;99222.59;5114855;28;19912;-91
2023/10/29 14:22:55;;;;;;;;;;;;;;;12.27;100.00;99215.06;5097181;28;19966;-91
2023/10/29 14:25:22;;;;;;;;;;;;;;;12.28;100.00;99202.78;5115022;28;20461;-91
2023/10/29 14:27:50;;;;;;;;;;;;;;;12.39;100.00;99197.03;5097885;28;20371;-91
2023/10/29 14:30:15;;;;;;;;;;;;;;;12.44;100.00;99179.28;5080710;28;19920;-91
2023/10/29 14:32:43;;;;;;;;;;;;;;;12.37;100.00;99169.97;5114781;28;20253;-92
2023/10/29 14:35:08;;;;;;;;;;;;;;;12.45;100.00;99158.19;5097906;28;19960;-92
2023/10/29 14:37:36;;;;;;;;;;;;;;;12.28;100.00;99161.63;5097692;28;19912;-92
2023/10/29 14:40:02;;;;;;;;;;;;;;;12.12;100.00;99163.22;5097306;28;19916;-92
2023/10/29 14:42:28;;;;;;;;;;;;;;;11.99;100.00;99152.41;5114844;28;20016;-91
2023/10/29 14:44:54;;;;;;;;;;;;;;;11.90;100.00;99164.16;5115782;28;19912;-92
2023/10/29 14:47:19;;;;;;;;;;;;;;;12.00;100.00;99163.78;5115949;28;19947;-91
2023/10/29 14:49:45;;;;;;;;;;;;;;;12.07;100.00;99152.09;5092817;28;19924;-92
2023/10/29 14:52:10;;;;;;;;;;;;;;;12.21;100.00;99160.19;5073437;28;20004;-92
2023/10/29 14:54:35;;;;;;;;;;;;;;;12.36;100.00;99145.50;5055183;28;19948;-92
2023/10/29 14:57:01;;;;;;;;;;;;;;;12.37;100.00;99176.09;5053526;28;19959;-91
2023/10/29 14:59:27;;;;;;;;;;;;;;;12.41;100.00;99175.03;5055056;28;19913;-93
2023/10/29 15:01:57;;;;;;;;;;;;;;;12.32;100.00;99175.44;5053218;28;19995;-92
2023/10/29 15:04:23;;;;;;;;;;;;;;;12.13;100.00;99180.69;5054170;28;19920;-93
2023/10/29 15:06:48;;;;;;;;;;;;;;;12.29;100.00;99192.19;5053456;28;19912;-93
2023/10/29 15:09:14;;;;;;;;;;;;;;;12.34;100.00;99191.13;5082589;28;19920;-92
2023/10/29 15:11:40;;;;;;;;;;;;;;;12.40;100.00;99204.84;5074520;28;19912;-92
2023/10/29 15:14:05;;;;;;;;;;;;;;;12.35;100.00;99206.81;5077550;28;20352;-92
2023/10/29 15:16:31;;;;;;;;;;;;;;;12.34;100.00;99205.16;5093541;28;19916;-93
2023/10/29 15:18:56;;;;;;;;;;;;;;;12.33;100.00;99203.44;5093807;28;20267;-92
2023/10/29 15:21:23;;;;;;;;;;;;;;;12.27;100.00;99198.47;5093293;28;20290;-93
2023/10/29 15:29:57;;;;;;;;;;;;;;;12.38;100.00;99190.91;5074050;28;19923;-92
2023/10/29 15:32:22;;;;;;;;;;;;;;;12.29;100.00;99197.44;5072841;28;19963;-92
2023/10/29 15:34:48;;;;;;;;;;;;;;;12.34;100.00;99194.63;5066356;28;19917;-92
2023/10/29 15:37:13;;;;;;;;;;;;;;;12.25;100.00;99206.38;5072689;28;19912;-91
2023/10/29 15:39:38;;;;;;;;;;;;;;;12.28;100.00;99201.03;5072514;28;20015;-91
2023/10/29 15:42:04;;;;;;;;;;;;;;;12.22;100.00;99210.94;5059600;28;19913;-92
2023/10/29 15:44:31;;;;;;;;;;;;;;;12.26;100.00;99207.25;5043467;28;20272;-93
2023/10/29 15:46:59;;;;;;;;;;;;;;;12.22;100.00;99195.19;5058147;28;20352;-93